Harrisburg, Illinois
Current Conditions -  °F | °C
As of 4:55 PM on Friday 28 Nov 2014 (Local Time) from KHSB Reporting Station
Clear Clear  
Wind Chill: 38°   Ceiling: Unl
Heat Index: 44°   Visibility: 10mi
Dew Point: 29°   Wind: 9mph
Humidity: 57%   Direction: 180°S
Pressure: 30.07"   Gusts: NA
Location:  37.74°N, 88.54°W
Report Text: KHSB 282255Z AUTO 18008KT 10SM CLR 06/M02 A3007 RMK AO2 T00641016
Loading
Personal Weather Stations






























Interactive Weather Map New forecast layout! Learn more

10-Day Weather Forecast

Advertisements
Track Severe Weather on mobile